Time;durP1;ratioP1;P1;durP2;ratioP2;P2;SDS_P1;SDS_P2;PMS_P1;PMS_P2;Temp;Humidity;BMP_temperature;BMP_pressure;BME280_temperature;BME280_humidity;BME280_pressure;Samples;Min_cycle;Max_cycle;Signal;HPM_P1;HPM_P2
2022/03/10 00:00:06;;;;;;;26.42;11.60;;;;;;;-2.28;60.79;98103.59;5025304;28;20060;-64
2022/03/10 00:02:39;;;;;;;22.65;11.05;;;;;;;-2.19;60.42;98096.56;5024147;28;20049;-63
2022/03/10 00:05:09;;;;;;;22.80;10.90;;;;;;;-2.13;60.19;98101.25;5026304;28;20052;-65
2022/03/10 00:07:38;;;;;;;21.70;9.38;;;;;;;-2.23;60.68;98093.41;5025620;28;20037;-63
2022/03/10 00:10:06;;;;;;;19.92;10.90;;;;;;;-2.44;61.15;98096.34;5025508;28;20650;-64
2022/03/10 00:12:33;;;;;;;22.95;11.43;;;;;;;-2.41;61.25;98114.59;5026316;28;20041;-63
2022/03/10 00:15:02;;;;;;;24.10;10.77;;;;;;;-2.56;61.91;98110.78;5025026;28;20264;-63
2022/03/10 00:17:28;;;;;;;24.50;11.57;;;;;;;-2.56;61.71;98111.63;5025536;28;20050;-64
2022/03/10 00:19:55;;;;;;;24.73;10.77;;;;;;;-2.55;61.99;98109.84;5025681;28;20060;-64
2022/03/10 00:22:21;;;;;;;27.75;10.82;;;;;;;-2.56;61.55;98111.63;5025703;28;20046;-65
2022/03/10 00:24:48;;;;;;;23.70;10.82;;;;;;;-2.64;61.94;98117.69;5026118;28;20103;-64
2022/03/10 00:27:14;;;;;;;22.98;10.93;;;;;;;-2.66;62.02;98118.84;5024883;28;20044;-64
2022/03/10 00:29:44;;;;;;;28.55;11.75;;;;;;;-2.76;62.43;98124.19;5021984;28;20049;-64
2022/03/10 00:32:10;;;;;;;24.27;11.30;;;;;;;-2.87;62.80;98128.69;5025663;28;20069;-63
2022/03/10 00:34:37;;;;;;;25.77;11.23;;;;;;;-2.81;62.43;98129.91;5032874;28;20674;-64
2022/03/10 00:37:04;;;;;;;21.35;10.93;;;;;;;-2.62;62.11;98128.97;5036576;28;20033;-64
2022/03/10 00:39:30;;;;;;;20.75;9.98;;;;;;;-2.45;61.94;98129.16;5024071;28;20073;-64
2022/03/10 00:41:57;;;;;;;24.23;11.93;;;;;;;-2.58;61.54;98132.16;5024982;28;20041;-64
2022/03/10 00:44:25;;;;;;;19.48;10.00;;;;;;;-2.69;61.40;98133.19;5022962;28;20045;-65
2022/03/10 00:46:51;;;;;;;23.83;12.40;;;;;;;-2.65;61.32;98136.41;5024570;28;20738;-63
2022/03/10 00:49:18;;;;;;;26.98;12.30;;;;;;;-2.79;62.20;98135.91;5025464;28;20103;-64
2022/03/10 00:51:48;;;;;;;24.25;10.55;;;;;;;-2.87;62.46;98135.81;5024653;28;20048;-64
2022/03/10 00:54:15;;;;;;;27.20;13.30;;;;;;;-2.95;62.86;98144.47;5025092;28;20045;-62
2022/03/10 00:56:43;;;;;;;25.20;11.35;;;;;;;-2.93;63.10;98136.38;5025266;28;20060;-63
2022/03/10 00:59:09;;;;;;;21.73;9.90;;;;;;;-2.98;62.93;98139.50;5024322;28;20108;-63
2022/03/10 01:01:36;;;;;;;23.70;10.57;;;;;;;-2.92;63.19;98132.75;5037255;28;20038;-65
2022/03/10 01:04:03;;;;;;;21.73;10.68;;;;;;;-2.93;62.80;98133.75;5024528;28;20071;-64
2022/03/10 01:06:30;;;;;;;26.42;10.98;;;;;;;-2.70;62.48;98138.66;5024807;28;20049;-64
2022/03/10 01:08:56;;;;;;;25.40;11.45;;;;;;;-2.63;62.80;98137.06;5025829;28;20037;-64
2022/03/10 01:11:23;;;;;;;24.30;10.50;;;;;;;-2.79;62.31;98135.06;5024442;28;20053;-63
2022/03/10 01:13:50;;;;;;;24.25;12.38;;;;;;;-3.06;63.10;98140.19;5025766;28;20095;-62
2022/03/10 01:16:16;;;;;;;25.20;11.32;;;;;;;-3.21;63.71;98131.06;5024383;28;20046;-63
2022/03/10 01:18:43;;;;;;;21.50;10.82;;;;;;;-3.25;64.34;98124.41;5025433;28;20041;-64
2022/03/10 01:21:10;;;;;;;21.00;10.05;;;;;;;-3.12;63.70;98122.25;5024764;28;20049;-65
2022/03/10 01:23:36;;;;;;;23.23;10.93;;;;;;;-2.96;63.71;98118.97;5024826;28;20044;-64
2022/03/10 01:26:03;;;;;;;26.52;12.38;;;;;;;-2.66;62.44;98113.53;5025017;28;20034;-65
2022/03/10 01:28:29;;;;;;;24.77;11.70;;;;;;;-2.59;62.08;98114.59;5023274;28;20049;-64
2022/03/10 01:30:56;;;;;;;24.00;11.07;;;;;;;-2.51;61.72;98119.97;5018923;28;20050;-64
2022/03/10 01:33:23;;;;;;;29.00;11.95;;;;;;;-2.54;61.72;98117.63;5024743;28;20073;-64
2022/03/10 01:35:49;;;;;;;24.85;11.48;;;;;;;-2.51;61.36;98117.31;5024252;28;20065;-65
2022/03/10 01:38:16;;;;;;;26.10;10.80;;;;;;;-2.44;61.59;98116.75;5025346;28;20045;-64
2022/03/10 01:40:44;;;;;;;24.13;11.43;;;;;;;-2.43;61.69;98115.75;5025261;28;20041;-64
2022/03/10 01:43:10;;;;;;;24.23;10.40;;;;;;;-2.40;61.57;98112.81;5024492;28;20055;-63
2022/03/10 01:45:37;;;;;;;24.00;10.85;;;;;;;-2.31;61.11;98114.53;5024768;28;20119;-63
2022/03/10 01:48:04;;;;;;;22.08;11.88;;;;;;;-2.24;60.84;98114.78;5025148;28;20034;-65
2022/03/10 01:50:30;;;;;;;23.50;11.57;;;;;;;-2.15;60.51;98113.00;5025367;28;20053;-63
2022/03/10 01:52:57;;;;;;;27.83;12.25;;;;;;;-2.00;60.18;98110.66;5025524;28;20053;-63
2022/03/10 01:55:23;;;;;;;23.63;11.27;;;;;;;-1.94;59.90;98106.56;5023957;28;20488;-65
2022/03/10 01:57:52;;;;;;;25.17;11.25;;;;;;;-2.00;60.16;98097.38;5024591;28;20057;-64
2022/03/10 02:00:19;;;;;;;23.05;10.68;;;;;;;-2.11;60.53;98099.31;5015209;28;20045;-64
2022/03/10 02:02:47;;;;;;;28.05;11.35;;;;;;;-2.30;61.15;98110.06;5028295;28;20042;-64
2022/03/10 02:05:14;;;;;;;21.52;10.93;;;;;;;-2.43;61.32;98107.78;5025062;28;20048;-64
2022/03/10 02:10:28;;;;;;;27.13;11.43;;;;;;;-2.79;62.72;98101.47;5024687;28;20509;-64
2022/03/10 02:12:55;;;;;;;19.27;9.82;;;;;;;-2.90;63.37;98109.59;5035552;28;20049;-64
2022/03/10 02:18:14;;;;;;;19.50;9.98;;;;;;;-2.80;63.53;98109.56;5028904;28;20044;-64
2022/03/10 02:20:41;;;;;;;23.10;11.23;;;;;;;-2.71;62.90;98110.47;5028409;28;20058;-64
2022/03/10 02:23:11;;;;;;;29.38;12.07;;;;;;;-2.79;63.50;98106.75;5028938;28;20045;-63
2022/03/10 02:25:39;;;;;;;20.83;10.20;;;;;;;-2.90;63.48;98113.09;5028431;28;20055;-63
2022/03/10 02:28:06;;;;;;;24.52;11.63;;;;;;;-3.17;64.41;98108.63;5028210;28;20409;-64
2022/03/10 02:30:34;;;;;;;19.55;10.25;;;;;;;-3.30;65.15;98108.94;5028690;28;20766;-64
2022/03/10 02:33:01;;;;;;;22.40;10.90;;;;;;;-3.34;65.36;98107.53;5028720;28;20053;-64
2022/03/10 02:35:27;;;;;;;23.73;11.25;;;;;;;-3.49;65.68;98101.88;5026897;28;20455;-66
2022/03/10 02:37:55;;;;;;;24.70;11.52;;;;;;;-3.57;66.09;98092.84;5027262;28;20042;-64
2022/03/10 02:40:22;;;;;;;27.77;11.45;;;;;;;-3.44;65.84;98096.97;5020653;28;20606;-66
2022/03/10 02:42:48;;;;;;;24.38;10.98;;;;;;;-3.42;65.90;98092.38;5028196;28;20052;-64
2022/03/10 02:45:15;;;;;;;26.02;12.02;;;;;;;-3.43;65.82;98094.19;5027989;28;20103;-64
2022/03/10 02:47:41;;;;;;;24.90;12.20;;;;;;;-3.42;66.12;98100.34;5026749;28;20033;-65
2022/03/10 02:50:09;;;;;;;25.98;11.52;;;;;;;-3.31;65.42;98105.44;5025514;28;20068;-64
2022/03/10 02:52:36;;;;;;;26.45;11.70;;;;;;;-3.45;65.89;98098.81;5037805;28;20045;-65
2022/03/10 02:55:05;;;;;;;24.40;11.40;;;;;;;-3.50;66.07;98103.72;5019074;28;20095;-64
2022/03/10 02:57:32;;;;;;;25.17;11.43;;;;;;;-3.53;66.14;98101.34;5024980;28;20045;-65
2022/03/10 03:00:02;;;;;;;26.00;11.20;;;;;;;-3.44;66.01;98108.41;5027482;28;20084;-64
2022/03/10 03:02:29;;;;;;;20.17;8.35;;;;;;;-3.28;65.46;98122.88;5033066;28;20045;-64
2022/03/10 03:04:57;;;;;;;23.45;10.55;;;;;;;-3.08;64.86;98120.97;5048059;28;20057;-65
2022/03/10 03:07:24;;;;;;;26.98;10.38;;;;;;;-3.19;65.09;98129.94;5047203;28;20668;-65
2022/03/10 03:09:51;;;;;;;24.23;12.27;;;;;;;-3.51;66.35;98125.84;5047093;28;20041;-64
2022/03/10 03:12:18;;;;;;;23.48;10.10;;;;;;;-3.68;67.06;98122.94;5032197;28;20056;-63
2022/03/10 03:14:44;;;;;;;26.13;11.68;;;;;;;-3.73;67.23;98122.56;5026257;28;20057;-64
2022/03/10 03:17:11;;;;;;;26.80;11.55;;;;;;;-3.83;67.85;98127.84;5026034;28;20041;-64
2022/03/10 03:19:38;;;;;;;21.95;11.32;;;;;;;-3.85;67.77;98119.22;5026557;28;20045;-65
2022/03/10 03:22:04;;;;;;;27.77;13.13;;;;;;;-3.93;67.97;98125.25;5027165;28;20045;-66
2022/03/10 03:24:31;;;;;;;22.83;10.00;;;;;;;-3.74;67.51;98127.97;5026663;28;20133;-64
2022/03/10 03:26:58;;;;;;;21.85;10.60;;;;;;;-3.60;66.93;98122.25;5026629;28;20087;-64
2022/03/10 03:29:25;;;;;;;21.80;10.13;;;;;;;-3.42;66.07;98127.63;5025777;28;20038;-64
2022/03/10 03:31:52;;;;;;;22.98;11.13;;;;;;;-3.28;65.46;98125.53;5026454;28;20051;-64
2022/03/10 03:34:19;;;;;;;21.02;10.20;;;;;;;-3.38;65.62;98133.50;5027502;28;20076;-64
2022/03/10 03:36:46;;;;;;;23.55;10.02;;;;;;;-3.39;66.02;98139.78;5026509;28;20048;-63
2022/03/10 03:39:13;;;;;;;22.98;10.45;;;;;;;-3.38;65.62;98144.09;5026311;28;20045;-63
2022/03/10 03:41:41;;;;;;;25.30;10.82;;;;;;;-3.36;65.45;98144.75;5025789;28;20049;-64
2022/03/10 03:44:08;;;;;;;24.48;10.60;;;;;;;-3.42;66.62;98153.28;5026642;28;20045;-64
2022/03/10 03:46:36;;;;;;;23.40;10.77;;;;;;;-3.60;66.23;98147.88;5026580;28;20069;-65
2022/03/10 03:49:09;;;;;;;22.98;11.82;;;;;;;-3.81;66.83;98152.38;5025855;28;20420;-62
2022/03/10 03:51:37;;;;;;;21.20;10.85;;;;;;;-3.75;67.23;98151.00;5026528;28;20049;-62
2022/03/10 03:54:05;;;;;;;25.75;12.18;;;;;;;-3.55;65.86;98157.06;5026782;28;20413;-64
2022/03/10 03:56:32;;;;;;;22.20;9.98;;;;;;;-3.55;66.80;98151.78;5025311;28;20129;-64
2022/03/10 03:58:58;;;;;;;23.58;11.32;;;;;;;-3.56;65.72;98151.91;5026636;28;20052;-64
2022/03/10 04:01:25;;;;;;;24.83;11.52;;;;;;;-3.57;66.01;98150.25;5025658;28;20420;-64
2022/03/10 04:03:52;;;;;;;22.90;11.23;;;;;;;-3.81;66.99;98143.59;5026484;28;20041;-64
2022/03/10 04:06:18;;;;;;;21.73;10.65;;;;;;;-3.81;67.13;98152.38;5026469;28;20049;-64
2022/03/10 04:08:45;;;;;;;26.92;11.20;;;;;;;-3.61;66.30;98149.69;5025493;28;20041;-65
2022/03/10 04:11:16;;;;;;;22.02;9.77;;;;;;;-3.65;66.02;98150.94;5026443;28;20053;-63
2022/03/10 04:13:42;;;;;;;20.77;10.35;;;;;;;-3.55;65.99;98154.44;5025575;28;20053;-63
2022/03/10 04:16:09;;;;;;;23.98;11.68;;;;;;;-3.56;66.01;98163.34;5026010;28;20045;-63
2022/03/10 04:18:36;;;;;;;20.38;10.80;;;;;;;-3.58;66.05;98161.84;5025588;28;20055;-65
2022/03/10 04:21:03;;;;;;;22.80;10.23;;;;;;;-3.57;66.07;98159.03;5006223;28;20042;-64
2022/03/10 04:23:30;;;;;;;20.65;9.50;;;;;;;-3.50;65.87;98164.59;5006218;28;20045;-64
2022/03/10 04:25:56;;;;;;;27.70;11.45;;;;;;;-3.48;65.93;98162.63;5017822;28;20041;-65
2022/03/10 04:28:23;;;;;;;23.25;10.75;;;;;;;-3.44;65.97;98160.53;5025896;28;20042;-64
2022/03/10 04:30:50;;;;;;;28.38;10.68;;;;;;;-3.42;65.54;98159.41;5025298;28;20528;-64
2022/03/10 04:33:17;;;;;;;22.60;11.02;;;;;;;-3.75;66.90;98152.78;5026607;28;20805;-63
2022/03/10 04:35:44;;;;;;;26.08;11.52;;;;;;;-3.84;67.09;98157.13;5030992;28;20045;-64
2022/03/10 04:38:10;;;;;;;21.42;10.57;;;;;;;-3.92;67.31;98150.72;5024982;28;20103;-65
2022/03/10 04:40:37;;;;;;;24.67;10.90;;;;;;;-3.89;67.34;98152.25;5025688;28;20037;-64
2022/03/10 04:43:04;;;;;;;23.10;10.68;;;;;;;-3.82;67.09;98158.66;5024185;28;20412;-64
2022/03/10 04:45:31;;;;;;;19.67;10.13;;;;;;;-3.68;66.55;98152.06;5040293;28;20052;-64
2022/03/10 04:47:58;;;;;;;23.50;11.57;;;;;;;-3.72;66.84;98147.22;5028909;28;20045;-64
2022/03/10 04:50:25;;;;;;;22.95;10.55;;;;;;;-3.82;66.97;98147.22;5024997;28;20068;-64
2022/03/10 04:52:51;;;;;;;21.15;11.00;;;;;;;-3.87;67.60;98152.91;5024753;28;20053;-64
2022/03/10 04:55:18;;;;;;;21.48;9.40;;;;;;;-3.72;66.71;98147.22;5024529;28;20529;-64
2022/03/10 04:57:49;;;;;;;25.10;11.55;;;;;;;-3.72;66.68;98147.22;5025167;28;20045;-64
2022/03/10 05:00:18;;;;;;;25.42;13.30;;;;;;;-3.90;67.46;98147.94;5029533;28;20066;-64
2022/03/10 05:02:47;;;;;;;23.13;11.70;;;;;;;-3.75;67.07;98148.34;5031731;28;20037;-64
2022/03/10 05:05:14;;;;;;;21.67;9.65;;;;;;;-3.71;66.76;98143.59;5024406;28;20148;-66
2022/03/10 05:07:41;;;;;;;23.05;10.13;;;;;;;-3.72;67.07;98144.56;5024890;28;20126;-64
2022/03/10 05:10:10;;;;;;;25.45;11.05;;;;;;;-3.72;66.82;98137.44;5025488;28;20104;-64
2022/03/10 05:12:48;;;;;;;20.85;9.70;;;;;;;-3.72;66.60;98133.97;5025767;28;20531;-63
2022/03/10 05:15:23;;;;;;;23.65;10.95;;;;;;;-3.70;66.26;98132.84;5024780;28;20049;-65
2022/03/10 05:17:51;;;;;;;21.70;10.77;;;;;;;-3.77;67.00;98138.88;5024777;28;20045;-64
2022/03/10 05:20:18;;;;;;;26.95;12.00;;;;;;;-3.89;67.09;98140.81;5024305;28;20063;-64
2022/03/10 05:22:47;;;;;;;24.00;11.70;;;;;;;-4.10;68.04;98139.13;5025354;28;20049;-65
2022/03/10 05:25:15;;;;;;;20.83;11.50;;;;;;;-4.13;68.22;98142.09;5024510;28;20041;-65
2022/03/10 05:27:43;;;;;;;26.30;12.30;;;;;;;-4.13;68.29;98145.53;5024788;28;20103;-65
2022/03/10 05:30:11;;;;;;;24.90;10.88;;;;;;;-4.34;68.55;98137.75;5025469;28;20042;-64
2022/03/10 05:32:38;;;;;;;29.35;13.32;;;;;;;-4.48;69.65;98136.34;5024799;28;20128;-64
2022/03/10 05:35:07;;;;;;;30.52;14.13;;;;;;;-4.59;70.62;98146.06;5025558;28;20627;-64
2022/03/10 05:37:38;;;;;;;23.88;11.63;;;;;;;-4.60;69.99;98143.56;5023602;28;20046;-64
2022/03/10 05:40:09;;;;;;;24.97;11.90;;;;;;;-4.76;70.39;98136.97;5021750;28;20046;-64
2022/03/10 05:42:40;;;;;;;32.40;14.05;;;;;;;-4.76;71.51;98141.44;5022098;28;20115;-65
2022/03/10 05:45:08;;;;;;;26.90;11.25;;;;;;;-4.78;71.49;98138.09;5020104;28;20042;-65
2022/03/10 05:47:35;;;;;;;22.20;11.82;;;;;;;-4.76;71.33;98142.25;5022542;28;20037;-64
2022/03/10 05:50:04;;;;;;;24.88;11.57;;;;;;;-4.38;70.15;98149.56;5025856;28;20155;-63
2022/03/10 05:52:30;;;;;;;18.85;8.63;;;;;;;-4.04;68.93;98149.19;5023794;28;20044;-63
2022/03/10 05:54:57;;;;;;;20.75;10.68;;;;;;;-3.87;68.17;98149.47;5026407;28;20529;-64
2022/03/10 05:57:24;;;;;;;21.52;10.75;;;;;;;-3.79;68.03;98145.13;5025092;28;20084;-64
2022/03/10 05:59:50;;;;;;;21.88;10.93;;;;;;;-3.82;68.12;98148.06;5028243;28;20041;-64
2022/03/10 06:02:17;;;;;;;22.50;10.15;;;;;;;-3.76;67.93;98146.66;5028680;28;20045;-65
2022/03/10 06:04:47;;;;;;;27.00;13.10;;;;;;;-3.75;67.64;98144.84;5028428;28;20651;-65
2022/03/10 06:07:14;;;;;;;27.35;11.45;;;;;;;-3.86;67.67;98144.03;5028261;28;20045;-64
2022/03/10 06:09:40;;;;;;;27.38;10.82;;;;;;;-3.93;68.40;98141.13;5028732;28;20045;-64
2022/03/10 06:12:09;;;;;;;24.80;11.32;;;;;;;-3.92;68.31;98147.22;5022611;28;20056;-65
2022/03/10 06:14:36;;;;;;;25.15;10.35;;;;;;;-3.99;68.59;98146.94;5024538;28;20045;-63
2022/03/10 06:17:03;;;;;;;25.10;11.18;;;;;;;-4.03;68.89;98150.03;5025916;28;20464;-64
2022/03/10 06:19:29;;;;;;;20.42;9.98;;;;;;;-3.96;68.91;98145.84;5024063;28;20049;-64
2022/03/10 06:21:56;;;;;;;24.20;11.48;;;;;;;-3.94;68.65;98141.25;5025658;28;20053;-64
2022/03/10 06:24:22;;;;;;;23.30;11.35;;;;;;;-4.08;69.44;98143.34;5026013;28;20691;-64
2022/03/10 06:26:49;;;;;;;23.05;10.07;;;;;;;-4.08;69.21;98153.06;5025642;28;20051;-63
2022/03/10 06:29:15;;;;;;;22.20;11.30;;;;;;;-4.08;69.69;98147.78;5026476;28;20053;-64
2022/03/10 06:31:42;;;;;;;27.33;11.73;;;;;;;-3.93;69.14;98151.69;5025388;28;20057;-64
2022/03/10 06:34:09;;;;;;;21.67;10.02;;;;;;;-3.92;69.01;98156.00;5026642;28;20041;-64
2022/03/10 06:36:36;;;;;;;25.60;12.30;;;;;;;-3.95;69.39;98166.00;5025920;28;20496;-64
2022/03/10 06:39:02;;;;;;;29.17;12.18;;;;;;;-4.03;69.61;98166.72;5027377;28;20111;-63
2022/03/10 06:41:29;;;;;;;22.73;11.48;;;;;;;-3.91;70.26;98167.41;5025635;28;20045;-64
2022/03/10 06:43:56;;;;;;;29.65;12.65;;;;;;;-3.84;69.87;98165.88;5024915;28;20060;-66
2022/03/10 06:46:22;;;;;;;23.23;11.55;;;;;;;-3.75;69.67;98166.00;5026487;28;20065;-65
2022/03/10 06:48:49;;;;;;;22.63;10.93;;;;;;;-3.60;69.56;98161.13;5023038;28;20056;-64
2022/03/10 06:51:15;;;;;;;25.92;11.70;;;;;;;-3.43;68.85;98164.88;5022837;28;20045;-64
2022/03/10 06:53:42;;;;;;;19.40;9.98;;;;;;;-3.27;68.74;98167.72;5023775;28;20045;-65
2022/03/10 06:56:09;;;;;;;21.83;9.65;;;;;;;-3.09;68.41;98169.66;5025326;28;20044;-66
2022/03/10 06:58:36;;;;;;;20.60;9.68;;;;;;;-2.91;67.90;98176.84;5024527;28;20057;-65
2022/03/10 07:01:03;;;;;;;22.58;10.82;;;;;;;-2.81;67.62;98176.78;5025036;28;20045;-64
2022/03/10 07:03:30;;;;;;;21.45;10.20;;;;;;;-2.67;67.27;98176.31;5021396;28;20053;-64
2022/03/10 07:05:56;;;;;;;23.13;11.27;;;;;;;-2.50;67.02;98169.38;5024584;28;20663;-65
2022/03/10 07:08:23;;;;;;;24.52;11.65;;;;;;;-2.41;67.07;98177.41;5024946;28;20053;-65
2022/03/10 07:10:49;;;;;;;26.90;11.75;;;;;;;-2.43;67.78;98177.56;5026076;28;20041;-65
2022/03/10 07:13:16;;;;;;;27.55;10.70;;;;;;;-2.44;67.38;98177.75;5025324;28;20520;-64
2022/03/10 07:15:42;;;;;;;25.80;11.93;;;;;;;-2.36;67.40;98185.78;5024097;28;20049;-65
2022/03/10 07:18:09;;;;;;;25.60;12.18;;;;;;;-2.27;67.49;98187.53;5026886;28;20095;-64
2022/03/10 07:20:36;;;;;;;23.25;10.52;;;;;;;-2.09;66.72;98192.03;5027482;28;20052;-63
2022/03/10 07:23:02;;;;;;;25.90;11.85;;;;;;;-1.65;65.52;98198.41;5027983;28;20053;-63
2022/03/10 07:25:29;;;;;;;20.27;11.40;;;;;;;-1.50;65.10;98190.72;5027489;28;20052;-64
2022/03/10 07:27:55;;;;;;;23.55;10.32;;;;;;;-1.34;64.86;98197.97;5008799;28;20064;-64
2022/03/10 07:30:22;;;;;;;20.38;9.40;;;;;;;-1.13;64.05;98196.78;5007545;28;20061;-63
2022/03/10 07:32:49;;;;;;;19.05;9.35;;;;;;;-0.94;64.04;98193.09;5020859;28;20435;-64
2022/03/10 07:35:15;;;;;;;23.73;11.48;;;;;;;-0.59;63.71;98195.75;5027082;28;20045;-64
2022/03/10 07:37:42;;;;;;;17.95;10.75;;;;;;;-0.43;63.01;98197.66;5026515;28;20563;-65
2022/03/10 07:40:10;;;;;;;20.88;10.65;;;;;;;-0.28;62.49;98201.38;5022851;28;20049;-64
2022/03/10 07:42:36;;;;;;;19.98;9.43;;;;;;;-0.19;62.31;98196.88;5008703;28;20046;-64
2022/03/10 07:45:04;;;;;;;21.42;9.48;;;;;;;-0.10;62.10;98205.72;5016336;28;20069;-65
2022/03/10 07:47:31;;;;;;;22.13;10.55;;;;;;;0.10;62.25;98192.09;5019855;28;20060;-53
2022/03/10 07:50:01;;;;;;;17.25;8.82;;;;;;;0.23;60.84;98199.63;5020318;28;20509;-60
2022/03/10 07:52:27;;;;;;;20.17;9.65;;;;;;;0.46;60.92;98197.16;5021039;28;20049;-64
2022/03/10 07:54:54;;;;;;;19.38;8.93;;;;;;;0.77;59.18;98185.81;5022043;28;20045;-62
2022/03/10 07:57:20;;;;;;;19.67;9.27;;;;;;;1.00;59.91;98193.09;5016227;28;20080;-61
2022/03/10 07:59:47;;;;;;;17.65;10.35;;;;;;;1.22;60.00;98189.88;5024391;28;20049;-63
2022/03/10 08:02:14;;;;;;;21.30;9.15;;;;;;;1.52;57.75;98188.25;5019571;28;20116;-63
2022/03/10 08:04:41;;;;;;;18.05;8.80;;;;;;;1.84;54.30;98190.94;5024307;28;20045;-62
2022/03/10 08:07:08;;;;;;;14.90;8.18;;;;;;;2.14;54.79;98191.09;5022928;28;20516;-62
2022/03/10 08:09:34;;;;;;;17.70;7.85;;;;;;;2.45;52.55;98195.56;5025459;28;20099;-63
2022/03/10 08:12:01;;;;;;;17.92;7.35;;;;;;;2.76;51.55;98182.28;5023373;28;20033;-65
2022/03/10 08:14:28;;;;;;;16.35;7.38;;;;;;;3.37;49.33;98181.31;5026471;28;20074;-62
2022/03/10 08:16:54;;;;;;;15.50;7.38;;;;;;;3.87;47.94;98181.50;5025480;28;20049;-63
2022/03/10 08:19:21;;;;;;;19.10;8.10;;;;;;;4.01;47.86;98177.13;5025053;28;20128;-63
2022/03/10 08:21:48;;;;;;;16.27;7.93;;;;;;;4.05;48.25;98182.13;5025980;28;20041;-63
2022/03/10 08:24:15;;;;;;;13.60;7.13;;;;;;;4.24;47.77;98178.00;5025956;28;20529;-61
2022/03/10 08:26:42;;;;;;;14.63;7.85;;;;;;;4.44;46.30;98178.19;5024895;28;20083;-63
2022/03/10 08:29:09;;;;;;;13.45;8.02;;;;;;;4.53;46.40;98176.19;5020300;28;20041;-65
2022/03/10 08:31:35;;;;;;;15.75;7.55;;;;;;;4.53;45.87;98170.81;5021068;28;20033;-64
2022/03/10 08:34:02;;;;;;;15.30;7.70;;;;;;;4.54;45.39;98170.63;5022483;28;20095;-65
2022/03/10 08:36:30;;;;;;;14.55;7.45;;;;;;;4.64;45.13;98161.44;5021639;28;20045;-64
2022/03/10 08:38:57;;;;;;;17.27;7.43;;;;;;;4.58;45.42;98163.03;5021181;28;20057;-65
2022/03/10 08:41:23;;;;;;;14.68;7.90;;;;;;;4.69;45.20;98153.63;5023368;28;20647;-65
2022/03/10 08:43:50;;;;;;;14.05;7.30;;;;;;;4.77;45.44;98156.19;5023381;28;20099;-65
2022/03/10 08:46:16;;;;;;;12.88;6.55;;;;;;;4.98;44.88;98154.47;5023692;28;20180;-65
2022/03/10 08:48:44;;;;;;;11.65;6.60;;;;;;;4.98;44.61;98150.94;5018356;28;20041;-65
2022/03/10 08:51:11;;;;;;;12.60;6.85;;;;;;;5.04;44.74;98150.13;5022455;28;20425;-65
2022/03/10 08:53:38;;;;;;;11.60;5.63;;;;;;;5.60;43.58;98151.03;5021743;28;20041;-64
2022/03/10 08:56:07;;;;;;;10.63;5.60;;;;;;;5.68;43.70;98153.56;5020896;28;20049;-66
2022/03/10 08:58:33;;;;;;;11.70;6.22;;;;;;;5.70;43.49;98142.63;5021678;28;20056;-64
2022/03/10 09:01:00;;;;;;;12.18;5.53;;;;;;;5.70;43.50;98148.00;5028502;28;20115;-63
2022/03/10 09:03:46;;;;;;;15.48;7.30;;;;;;;6.00;43.30;98139.59;5020393;28;20053;-66
2022/03/10 09:06:14;;;;;;;14.98;7.70;;;;;;;6.21;43.03;98135.97;5022646;28;20056;-66
2022/03/10 09:08:42;;;;;;;19.63;7.55;;;;;;;6.26;43.25;98139.91;5023903;28;20049;-65
2022/03/10 09:11:09;;;;;;;15.63;7.55;;;;;;;6.43;42.74;98140.31;5022606;28;20128;-64
2022/03/10 09:13:35;;;;;;;23.08;8.80;;;;;;;6.57;42.33;98136.63;5030568;28;20044;-64
2022/03/10 09:16:02;;;;;;;16.48;8.68;;;;;;;6.68;42.03;98127.09;5021161;28;20052;-64
2022/03/10 09:18:29;;;;;;;20.05;7.75;;;;;;;6.75;42.32;98129.78;5023077;28;20125;-64
2022/03/10 09:20:56;;;;;;;19.45;8.30;;;;;;;6.73;41.68;98124.59;5023727;28;20048;-65
2022/03/10 09:23:22;;;;;;;17.70;8.48;;;;;;;6.81;41.60;98123.53;5022883;28;20204;-64
2022/03/10 09:25:49;;;;;;;23.88;7.68;;;;;;;6.98;41.01;98120.41;5029347;28;20675;-65
2022/03/10 09:28:15;;;;;;;21.58;7.50;;;;;;;6.95;41.61;98120.84;5029133;28;20037;-66
2022/03/10 09:30:42;;;;;;;15.05;6.90;;;;;;;7.05;41.74;98123.09;5029397;28;20108;-64
2022/03/10 09:33:09;;;;;;;14.65;8.07;;;;;;;7.14;41.23;98132.59;5026498;28;20041;-64
2022/03/10 09:35:35;;;;;;;15.00;8.38;;;;;;;7.19;41.37;98122.00;5025423;28;20037;-67
2022/03/10 09:38:02;;;;;;;14.68;7.95;;;;;;;7.17;41.31;98124.09;5027127;28;20649;-64
2022/03/10 09:40:29;;;;;;;17.20;7.85;;;;;;;7.25;40.82;98120.34;5021827;28;20097;-65
2022/03/10 09:42:57;;;;;;;18.35;7.80;;;;;;;7.33;41.06;98130.88;5027151;28;20052;-64
2022/03/10 09:45:23;;;;;;;19.67;8.20;;;;;;;7.33;41.10;98108.53;5027148;28;20052;-67
2022/03/10 09:47:50;;;;;;;18.08;7.75;;;;;;;7.58;40.53;98122.09;5027500;28;20037;-64
2022/03/10 09:50:18;;;;;;;13.32;7.65;;;;;;;7.68;39.92;98118.94;5026575;28;20045;-64
2022/03/10 09:52:46;;;;;;;17.15;8.15;;;;;;;7.83;39.58;98129.47;5029390;28;20523;-65
2022/03/10 09:55:15;;;;;;;13.45;7.43;;;;;;;8.05;39.68;98119.19;5029236;28;20048;-64
2022/03/10 09:57:43;;;;;;;14.10;7.20;;;;;;;8.02;39.26;98116.91;5022744;28;20069;-67
2022/03/10 10:00:14;;;;;;;13.43;7.57;;;;;;;8.11;39.48;98117.47;5027307;28;20050;-66
2022/03/10 10:02:42;;;;;;;14.32;7.45;;;;;;;8.37;38.50;98120.22;5027886;28;20037;-65
2022/03/10 10:05:22;;;;;;;14.55;7.03;;;;;;;8.45;38.39;98109.94;5029954;28;20073;-65
2022/03/10 10:08:13;;;;;;;13.02;5.97;;;;;;;8.42;38.62;98113.09;5026223;28;20111;-64
2022/03/10 10:10:53;;;;;;;14.18;7.38;;;;;;;8.54;37.88;98115.09;5035032;28;20034;-66
2022/03/10 10:13:34;;;;;;;12.40;6.65;;;;;;;8.63;37.66;98103.00;5025489;28;20049;-65
2022/03/10 10:16:02;;;;;;;11.63;5.78;;;;;;;8.69;37.61;98106.66;5026581;28;20644;-64
2022/03/10 10:18:30;;;;;;;10.20;5.40;;;;;;;8.67;37.33;98096.09;5025882;28;20507;-64
2022/03/10 10:21:19;;;;;;;10.90;5.65;;;;;;;8.78;36.95;98097.25;5022885;28;20509;-64
2022/03/10 10:23:48;;;;;;;10.05;5.60;;;;;;;8.83;36.82;98093.88;5028662;28;20528;-64
2022/03/10 10:26:14;;;;;;;9.02;5.45;;;;;;;8.98;36.35;98097.06;5023333;28;20060;-64
2022/03/10 10:28:47;;;;;;;11.00;5.10;;;;;;;9.04;36.05;98086.41;5026193;28;20576;-65
2022/03/10 10:31:17;;;;;;;12.57;5.13;;;;;;;9.07;36.44;98091.38;5026396;28;20563;-64
2022/03/10 10:33:56;;;;;;;9.75;4.65;;;;;;;9.10;36.37;98082.78;5025736;28;20048;-65
2022/03/10 10:36:29;;;;;;;9.50;5.38;;;;;;;9.06;36.02;98082.44;5021557;28;20124;-65
2022/03/10 10:39:17;;;;;;;8.73;5.35;;;;;;;9.34;35.78;98080.25;5026265;28;20072;-65
2022/03/10 10:41:46;;;;;;;11.15;4.88;;;;;;;9.43;35.63;98080.78;5019657;28;20041;-65
2022/03/10 10:44:17;;;;;;;9.40;4.97;;;;;;;9.50;35.18;98076.09;5026869;28;20045;-66
2022/03/10 10:46:46;;;;;;;8.65;5.38;;;;;;;9.52;34.99;98062.34;5024711;28;20073;-65
2022/03/10 10:49:18;;;;;;;8.73;4.90;;;;;;;9.71;35.04;98057.72;5028226;28;20034;-65
2022/03/10 10:51:53;;;;;;;12.10;5.05;;;;;;;9.81;34.44;98065.28;5036356;28;20056;-65
2022/03/10 10:54:25;;;;;;;10.30;5.45;;;;;;;9.82;34.66;98069.66;5025710;28;20099;-64
2022/03/10 10:56:57;;;;;;;10.13;4.90;;;;;;;9.92;34.22;98063.69;5024371;28;20049;-64
2022/03/10 10:59:41;;;;;;;10.38;4.82;;;;;;;9.83;34.30;98068.59;5022540;28;20098;-62
2022/03/10 11:02:10;;;;;;;8.60;4.63;;;;;;;9.83;34.40;98060.47;5023426;28;20037;-64
2022/03/10 11:04:40;;;;;;;9.45;4.78;;;;;;;9.89;34.42;98067.69;5023616;28;20281;-63
2022/03/10 11:07:09;;;;;;;5.72;2.70;;;;;;;10.00;33.38;98060.66;5020301;28;20045;-64
2022/03/10 11:09:37;;;;;;;11.00;4.82;;;;;;;9.94;33.99;98059.69;5026425;28;20046;-64
2022/03/10 11:12:04;;;;;;;11.43;5.97;;;;;;;10.00;34.03;98052.53;5024912;28;20060;-64
2022/03/10 11:14:31;;;;;;;8.35;4.65;;;;;;;10.06;33.83;98050.78;5022641;28;20579;-64
2022/03/10 11:17:01;;;;;;;7.15;4.00;;;;;;;10.18;33.98;98046.22;5024208;28;20064;-62
2022/03/10 11:19:32;;;;;;;8.30;3.78;;;;;;;10.35;33.15;98038.25;5026630;28;20045;-63
2022/03/10 11:22:34;;;;;;;7.57;3.90;;;;;;;10.54;32.57;98046.28;5027411;28;20176;-64
2022/03/10 11:25:11;;;;;;;5.82;3.10;;;;;;;10.57;32.85;98043.09;5032887;28;20057;-63
2022/03/10 11:27:49;;;;;;;6.35;3.40;;;;;;;10.70;32.58;98042.06;5023714;28;20535;-64
2022/03/10 11:30:17;;;;;;;6.75;3.33;;;;;;;10.76;31.84;98038.38;5024579;28;20045;-67
2022/03/10 11:32:59;;;;;;;9.20;3.95;;;;;;;10.74;31.93;98031.56;5018927;28;20041;-66